sensor_id;sensor_type;location;lat;lon;timestamp;temperature;humidity
13035;DHT22;6584;48.022;11.810;2023-02-28T00:01:19;-3.00;99.90
13035;DHT22;6584;48.022;11.810;2023-02-28T00:03:44;-3.00;99.90
13035;DHT22;6584;48.022;11.810;2023-02-28T00:06:10;-3.00;99.90
13035;DHT22;6584;48.022;11.810;2023-02-28T00:08:36;-3.10;99.90
13035;DHT22;6584;48.022;11.810;2023-02-28T00:11:07;-3.10;99.90
13035;DHT22;6584;48.022;11.810;2023-02-28T00:13:39;-3.20;99.90
13035;DHT22;6584;48.022;11.810;2023-02-28T00:16:08;-3.10;99.90
13035;DHT22;6584;48.022;11.810;2023-02-28T00:18:34;-3.20;99.90
13035;DHT22;6584;48.022;11.810;2023-02-28T00:21:00;-3.10;99.90
13035;DHT22;6584;48.022;11.810;2023-02-28T00:23:26;-3.10;99.90
13035;DHT22;6584;48.022;11.810;2023-02-28T00:25:52;-3.10;99.90
13035;DHT22;6584;48.022;11.810;2023-02-28T00:28:18;-3.10;99.90
13035;DHT22;6584;48.022;11.810;2023-02-28T00:30:44;-3.10;99.90
13035;DHT22;6584;48.022;11.810;2023-02-28T00:33:10;-3.10;99.90
13035;DHT22;6584;48.022;11.810;2023-02-28T00:35:35;-3.10;99.90
13035;DHT22;6584;48.022;11.810;2023-02-28T00:38:01;-3.00;99.90
13035;DHT22;6584;48.022;11.810;2023-02-28T00:40:27;-3.10;99.90
13035;DHT22;6584;48.022;11.810;2023-02-28T00:42:53;-3.20;99.90
13035;DHT22;6584;48.022;11.810;2023-02-28T00:45:18;-3.20;99.90
13035;DHT22;6584;48.022;11.810;2023-02-28T00:47:44;-3.20;99.90
13035;DHT22;6584;48.022;11.810;2023-02-28T00:50:11;-3.30;99.90
13035;DHT22;6584;48.022;11.810;2023-02-28T00:52:37;-3.30;99.90
13035;DHT22;6584;48.022;11.810;2023-02-28T00:55:03;-3.20;99.90
13035;DHT22;6584;48.022;11.810;2023-02-28T00:57:28;-3.40;99.90
13035;DHT22;6584;48.022;11.810;2023-02-28T00:59:54;-3.40;99.90
13035;DHT22;6584;48.022;11.810;2023-02-28T01:02:21;-3.40;99.90
13035;DHT22;6584;48.022;11.810;2023-02-28T01:04:47;-3.40;99.90
13035;DHT22;6584;48.022;11.810;2023-02-28T01:07:12;-3.50;99.90
13035;DHT22;6584;48.022;11.810;2023-02-28T01:09:40;-3.40;99.90
13035;DHT22;6584;48.022;11.810;2023-02-28T01:12:07;-3.40;99.90
13035;DHT22;6584;48.022;11.810;2023-02-28T01:14:33;-3.40;99.90
13035;DHT22;6584;48.022;11.810;2023-02-28T01:16:59;-3.40;99.90
13035;DHT22;6584;48.022;11.810;2023-02-28T01:19:25;-3.30;99.90
13035;DHT22;6584;48.022;11.810;2023-02-28T01:21:51;-3.30;99.90
13035;DHT22;6584;48.022;11.810;2023-02-28T01:24:16;-3.30;99.90
13035;DHT22;6584;48.022;11.810;2023-02-28T01:26:42;-3.30;99.90
13035;DHT22;6584;48.022;11.810;2023-02-28T01:29:08;-3.40;99.90
13035;DHT22;6584;48.022;11.810;2023-02-28T01:31:33;-3.40;99.90
13035;DHT22;6584;48.022;11.810;2023-02-28T01:33:59;-3.50;99.90
13035;DHT22;6584;48.022;11.810;2023-02-28T01:36:25;-3.40;99.90
13035;DHT22;6584;48.022;11.810;2023-02-28T01:38:51;-3.50;99.90
13035;DHT22;6584;48.022;11.810;2023-02-28T01:41:21;-3.60;99.90
13035;DHT22;6584;48.022;11.810;2023-02-28T01:46:14;-3.50;99.90
13035;DHT22;6584;48.022;11.810;2023-02-28T01:48:48;-3.50;99.90
13035;DHT22;6584;48.022;11.810;2023-02-28T01:51:18;-3.40;99.90
13035;DHT22;6584;48.022;11.810;2023-02-28T01:53:53;-3.50;99.90
13035;DHT22;6584;48.022;11.810;2023-02-28T01:56:26;-3.50;99.90
13035;DHT22;6584;48.022;11.810;2023-02-28T01:58:53;-3.50;99.90
13035;DHT22;6584;48.022;11.810;2023-02-28T02:01:21;-3.60;99.90
13035;DHT22;6584;48.022;11.810;2023-02-28T02:03:50;-3.60;99.90
13035;DHT22;6584;48.022;11.810;2023-02-28T02:06:28;-3.70;99.90
13035;DHT22;6584;48.022;11.810;2023-02-28T02:08:54;-3.60;99.90
13035;DHT22;6584;48.022;11.810;2023-02-28T02:11:22;-3.60;99.90
13035;DHT22;6584;48.022;11.810;2023-02-28T02:16:51;-3.60;99.90
13035;DHT22;6584;48.022;11.810;2023-02-28T02:19:33;-3.60;99.90
13035;DHT22;6584;48.022;11.810;2023-02-28T02:25:26;-3.60;99.90
13035;DHT22;6584;48.022;11.810;2023-02-28T02:28:06;-3.60;99.90
13035;DHT22;6584;48.022;11.810;2023-02-28T02:33:44;-3.70;99.90
13035;DHT22;6584;48.022;11.810;2023-02-28T02:36:13;-3.70;99.90
13035;DHT22;6584;48.022;11.810;2023-02-28T02:39:02;-3.70;99.90
13035;DHT22;6584;48.022;11.810;2023-02-28T02:46:45;-3.80;99.90
13035;DHT22;6584;48.022;11.810;2023-02-28T02:49:20;-3.70;99.90
13035;DHT22;6584;48.022;11.810;2023-02-28T02:51:47;-3.80;99.90
13035;DHT22;6584;48.022;11.810;2023-02-28T02:54:21;-3.80;99.90
13035;DHT22;6584;48.022;11.810;2023-02-28T02:56:49;-3.70;99.90
13035;DHT22;6584;48.022;11.810;2023-02-28T02:59:20;-3.80;99.90
13035;DHT22;6584;48.022;11.810;2023-02-28T03:01:51;-3.90;99.90
13035;DHT22;6584;48.022;11.810;2023-02-28T03:04:20;-3.90;99.90
13035;DHT22;6584;48.022;11.810;2023-02-28T03:06:46;-3.90;99.90
13035;DHT22;6584;48.022;11.810;2023-02-28T03:09:12;-3.90;99.90
13035;DHT22;6584;48.022;11.810;2023-02-28T03:11:38;-3.80;99.90
13035;DHT22;6584;48.022;11.810;2023-02-28T03:22:49;-3.70;99.90
13035;DHT22;6584;48.022;11.810;2023-02-28T03:25:27;-3.70;99.90
13035;DHT22;6584;48.022;11.810;2023-02-28T03:28:17;-3.70;99.90
13035;DHT22;6584;48.022;11.810;2023-02-28T03:30:49;-3.70;99.90
13035;DHT22;6584;48.022;11.810;2023-02-28T03:33:22;-3.70;99.90
13035;DHT22;6584;48.022;11.810;2023-02-28T03:36:02;-3.80;99.90
13035;DHT22;6584;48.022;11.810;2023-02-28T03:41:25;-3.90;99.90
13035;DHT22;6584;48.022;11.810;2023-02-28T03:44:00;-3.90;99.90
13035;DHT22;6584;48.022;11.810;2023-02-28T03:46:32;-3.90;99.90
13035;DHT22;6584;48.022;11.810;2023-02-28T03:49:15;-3.80;99.90
13035;DHT22;6584;48.022;11.810;2023-02-28T03:51:42;-3.90;99.90
13035;DHT22;6584;48.022;11.810;2023-02-28T03:54:22;-3.90;99.90
13035;DHT22;6584;48.022;11.810;2023-02-28T03:56:53;-3.80;99.90
13035;DHT22;6584;48.022;11.810;2023-02-28T03:59:29;-3.80;99.90
13035;DHT22;6584;48.022;11.810;2023-02-28T04:01:57;-3.80;99.90
13035;DHT22;6584;48.022;11.810;2023-02-28T04:04:23;-3.90;99.90
13035;DHT22;6584;48.022;11.810;2023-02-28T04:06:50;-3.80;99.90
13035;DHT22;6584;48.022;11.810;2023-02-28T04:09:16;-3.70;99.90
13035;DHT22;6584;48.022;11.810;2023-02-28T04:11:50;-3.70;99.90
13035;DHT22;6584;48.022;11.810;2023-02-28T04:14:21;-3.70;99.90
13035;DHT22;6584;48.022;11.810;2023-02-28T04:16:47;-3.70;99.90
13035;DHT22;6584;48.022;11.810;2023-02-28T04:19:13;-3.60;99.90
13035;DHT22;6584;48.022;11.810;2023-02-28T04:21:48;-3.50;99.90
13035;DHT22;6584;48.022;11.810;2023-02-28T04:24:21;-3.50;99.90
13035;DHT22;6584;48.022;11.810;2023-02-28T04:26:49;-3.50;99.90
13035;DHT22;6584;48.022;11.810;2023-02-28T04:29:23;-3.40;99.90
13035;DHT22;6584;48.022;11.810;2023-02-28T04:31:49;-3.50;99.90
13035;DHT22;6584;48.022;11.810;2023-02-28T04:34:15;-3.60;99.90
13035;DHT22;6584;48.022;11.810;2023-02-28T04:36:40;-3.60;99.90
13035;DHT22;6584;48.022;11.810;2023-02-28T04:39:06;-3.60;99.90
13035;DHT22;6584;48.022;11.810;2023-02-28T04:41:31;-3.80;99.90
13035;DHT22;6584;48.022;11.810;2023-02-28T04:43:57;-3.80;99.90
13035;DHT22;6584;48.022;11.810;2023-02-28T04:46:23;-3.70;99.90
13035;DHT22;6584;48.022;11.810;2023-02-28T04:48:49;-3.70;99.90
13035;DHT22;6584;48.022;11.810;2023-02-28T04:51:16;-3.70;99.90
13035;DHT22;6584;48.022;11.810;2023-02-28T04:53:42;-3.70;99.90
13035;DHT22;6584;48.022;11.810;2023-02-28T04:56:11;-3.80;99.90
13035;DHT22;6584;48.022;11.810;2023-02-28T04:58:37;-3.90;99.90
13035;DHT22;6584;48.022;11.810;2023-02-28T05:01:20;-3.90;99.90
13035;DHT22;6584;48.022;11.810;2023-02-28T05:03:46;-3.90;99.90
13035;DHT22;6584;48.022;11.810;2023-02-28T05:06:12;-3.80;99.90
13035;DHT22;6584;48.022;11.810;2023-02-28T05:08:39;-3.80;99.90
13035;DHT22;6584;48.022;11.810;2023-02-28T05:11:08;-3.70;99.90
13035;DHT22;6584;48.022;11.810;2023-02-28T05:13:37;-3.60;99.90
13035;DHT22;6584;48.022;11.810;2023-02-28T05:16:02;-3.50;99.90
13035;DHT22;6584;48.022;11.810;2023-02-28T05:18:28;-3.50;99.90
13035;DHT22;6584;48.022;11.810;2023-02-28T05:20:53;-3.50;99.90
13035;DHT22;6584;48.022;11.810;2023-02-28T05:23:22;-3.60;99.90
13035;DHT22;6584;48.022;11.810;2023-02-28T05:25:48;-3.60;99.90
13035;DHT22;6584;48.022;11.810;2023-02-28T05:28:13;-3.50;99.90
13035;DHT22;6584;48.022;11.810;2023-02-28T05:30:39;-3.50;99.90
13035;DHT22;6584;48.022;11.810;2023-02-28T05:33:05;-3.50;99.90
13035;DHT22;6584;48.022;11.810;2023-02-28T05:35:30;-3.40;99.90
13035;DHT22;6584;48.022;11.810;2023-02-28T05:37:56;-3.50;99.90
13035;DHT22;6584;48.022;11.810;2023-02-28T05:40:22;-3.50;99.90
13035;DHT22;6584;48.022;11.810;2023-02-28T05:42:47;-3.50;99.90
13035;DHT22;6584;48.022;11.810;2023-02-28T05:45:15;-3.60;99.90
13035;DHT22;6584;48.022;11.810;2023-02-28T05:47:40;-3.60;99.90
13035;DHT22;6584;48.022;11.810;2023-02-28T05:50:06;-3.60;99.90
13035;DHT22;6584;48.022;11.810;2023-02-28T05:52:32;-3.50;99.90
13035;DHT22;6584;48.022;11.810;2023-02-28T05:54:58;-3.40;99.90
13035;DHT22;6584;48.022;11.810;2023-02-28T05:57:23;-3.40;99.90
13035;DHT22;6584;48.022;11.810;2023-02-28T05:59:49;-3.50;99.90
13035;DHT22;6584;48.022;11.810;2023-02-28T06:02:16;-3.40;99.90
13035;DHT22;6584;48.022;11.810;2023-02-28T06:04:43;-3.30;99.90
13035;DHT22;6584;48.022;11.810;2023-02-28T06:07:09;-3.30;99.90
13035;DHT22;6584;48.022;11.810;2023-02-28T06:09:35;-3.30;99.90
13035;DHT22;6584;48.022;11.810;2023-02-28T06:12:03;-3.30;99.90
13035;DHT22;6584;48.022;11.810;2023-02-28T06:14:31;-3.30;99.90
13035;DHT22;6584;48.022;11.810;2023-02-28T06:16:58;-3.20;99.90
13035;DHT22;6584;48.022;11.810;2023-02-28T06:19:24;-3.20;99.90
13035;DHT22;6584;48.022;11.810;2023-02-28T06:21:54;-3.10;99.90
13035;DHT22;6584;48.022;11.810;2023-02-28T06:24:21;-3.10;99.90
13035;DHT22;6584;48.022;11.810;2023-02-28T06:26:48;-3.10;99.90
13035;DHT22;6584;48.022;11.810;2023-02-28T06:29:14;-3.10;99.90
13035;DHT22;6584;48.022;11.810;2023-02-28T06:31:46;-3.00;99.90
13035;DHT22;6584;48.022;11.810;2023-02-28T06:34:13;-3.00;99.90
13035;DHT22;6584;48.022;11.810;2023-02-28T06:36:40;-2.90;99.90
13035;DHT22;6584;48.022;11.810;2023-02-28T06:39:06;-2.90;99.90
13035;DHT22;6584;48.022;11.810;2023-02-28T06:41:33;-3.10;99.90
13035;DHT22;6584;48.022;11.810;2023-02-28T06:44:04;-3.00;99.90
13035;DHT22;6584;48.022;11.810;2023-02-28T06:46:31;-2.90;99.90
13035;DHT22;6584;48.022;11.810;2023-02-28T06:48:56;-2.80;99.90
13035;DHT22;6584;48.022;11.810;2023-02-28T06:51:23;-2.80;99.90
13035;DHT22;6584;48.022;11.810;2023-02-28T06:53:49;-2.80;99.90
13035;DHT22;6584;48.022;11.810;2023-02-28T06:56:16;-2.70;99.90
13035;DHT22;6584;48.022;11.810;2023-02-28T06:58:49;-2.70;99.90
13035;DHT22;6584;48.022;11.810;2023-02-28T07:01:15;-2.80;99.90
13035;DHT22;6584;48.022;11.810;2023-02-28T07:03:41;-2.80;99.90
13035;DHT22;6584;48.022;11.810;2023-02-28T07:06:07;-2.80;99.90
13035;DHT22;6584;48.022;11.810;2023-02-28T07:08:34;-2.80;99.90
13035;DHT22;6584;48.022;11.810;2023-02-28T07:11:00;-2.80;99.90
13035;DHT22;6584;48.022;11.810;2023-02-28T07:13:25;-2.80;99.90
13035;DHT22;6584;48.022;11.810;2023-02-28T07:16:05;-2.80;99.90
13035;DHT22;6584;48.022;11.810;2023-02-28T07:18:31;-2.80;99.90
13035;DHT22;6584;48.022;11.810;2023-02-28T07:20:57;-2.90;99.90
13035;DHT22;6584;48.022;11.810;2023-02-28T07:23:23;-2.80;99.90
13035;DHT22;6584;48.022;11.810;2023-02-28T07:25:50;-2.80;99.90
13035;DHT22;6584;48.022;11.810;2023-02-28T07:28:15;-2.80;99.90
13035;DHT22;6584;48.022;11.810;2023-02-28T07:30:41;-2.60;99.90
13035;DHT22;6584;48.022;11.810;2023-02-28T07:33:07;-2.60;99.90
13035;DHT22;6584;48.022;11.810;2023-02-28T07:35:32;-2.60;99.90
13035;DHT22;6584;48.022;11.810;2023-02-28T07:37:58;-2.60;99.90
13035;DHT22;6584;48.022;11.810;2023-02-28T07:40:25;-2.60;99.90
13035;DHT22;6584;48.022;11.810;2023-02-28T07:42:50;-2.60;99.90
13035;DHT22;6584;48.022;11.810;2023-02-28T07:45:16;-2.50;99.90
13035;DHT22;6584;48.022;11.810;2023-02-28T07:47:43;-2.40;99.90
13035;DHT22;6584;48.022;11.810;2023-02-28T07:50:11;-2.50;99.90
13035;DHT22;6584;48.022;11.810;2023-02-28T07:52:37;-2.60;99.90
13035;DHT22;6584;48.022;11.810;2023-02-28T07:55:04;-2.60;99.90
13035;DHT22;6584;48.022;11.810;2023-02-28T07:57:30;-2.60;99.90
13035;DHT22;6584;48.022;11.810;2023-02-28T07:59:56;-2.60;99.90
13035;DHT22;6584;48.022;11.810;2023-02-28T08:02:21;-2.60;99.90
13035;DHT22;6584;48.022;11.810;2023-02-28T08:04:47;-2.60;99.90
13035;DHT22;6584;48.022;11.810;2023-02-28T08:07:14;-2.50;99.90
13035;DHT22;6584;48.022;11.810;2023-02-28T08:09:40;-2.50;99.90
13035;DHT22;6584;48.022;11.810;2023-02-28T08:12:06;-2.50;99.90
13035;DHT22;6584;48.022;11.810;2023-02-28T08:14:32;-2.40;99.90
13035;DHT22;6584;48.022;11.810;2023-02-28T08:16:58;-2.30;99.90
13035;DHT22;6584;48.022;11.810;2023-02-28T08:19:23;-2.30;99.90
13035;DHT22;6584;48.022;11.810;2023-02-28T08:21:49;-2.30;99.90
13035;DHT22;6584;48.022;11.810;2023-02-28T08:24:15;-2.20;99.90
13035;DHT22;6584;48.022;11.810;2023-02-28T08:26:40;-2.40;99.90
13035;DHT22;6584;48.022;11.810;2023-02-28T08:29:06;-2.20;99.90
13035;DHT22;6584;48.022;11.810;2023-02-28T08:31:31;-2.20;99.90
13035;DHT22;6584;48.022;11.810;2023-02-28T08:33:57;-2.40;99.90
13035;DHT22;6584;48.022;11.810;2023-02-28T08:36:24;-2.40;99.90
13035;DHT22;6584;48.022;11.810;2023-02-28T08:38:50;-2.30;99.90
13035;DHT22;6584;48.022;11.810;2023-02-28T08:41:16;-2.10;99.90
13035;DHT22;6584;48.022;11.810;2023-02-28T08:43:42;-2.20;99.90
13035;DHT22;6584;48.022;11.810;2023-02-28T08:46:08;-2.20;99.90
13035;DHT22;6584;48.022;11.810;2023-02-28T08:48:36;-2.10;99.90
13035;DHT22;6584;48.022;11.810;2023-02-28T08:51:11;-2.10;99.90
13035;DHT22;6584;48.022;11.810;2023-02-28T08:53:39;-2.00;99.90
13035;DHT22;6584;48.022;11.810;2023-02-28T08:56:07;-1.90;99.90
13035;DHT22;6584;48.022;11.810;2023-02-28T08:58:33;-2.10;99.90
13035;DHT22;6584;48.022;11.810;2023-02-28T09:01:00;-1.90;99.90
13035;DHT22;6584;48.022;11.810;2023-02-28T09:03:26;-1.90;99.90
13035;DHT22;6584;48.022;11.810;2023-02-28T09:05:59;-1.90;99.90
13035;DHT22;6584;48.022;11.810;2023-02-28T09:08:27;-2.00;99.90
13035;DHT22;6584;48.022;11.810;2023-02-28T09:10:52;-2.00;99.90
13035;DHT22;6584;48.022;11.810;2023-02-28T09:13:19;-2.00;99.90
13035;DHT22;6584;48.022;11.810;2023-02-28T09:15:45;-1.90;99.90
13035;DHT22;6584;48.022;11.810;2023-02-28T09:18:11;-1.70;99.90
13035;DHT22;6584;48.022;11.810;2023-02-28T09:20:40;-1.50;99.90
13035;DHT22;6584;48.022;11.810;2023-02-28T09:23:07;-1.60;99.90
13035;DHT22;6584;48.022;11.810;2023-02-28T09:25:33;-1.70;99.90
13035;DHT22;6584;48.022;11.810;2023-02-28T09:27:59;-1.70;99.90
13035;DHT22;6584;48.022;11.810;2023-02-28T09:30:25;-1.60;99.90
13035;DHT22;6584;48.022;11.810;2023-02-28T09:32:51;-1.80;99.90
13035;DHT22;6584;48.022;11.810;2023-02-28T09:35:18;-1.60;99.90
13035;DHT22;6584;48.022;11.810;2023-02-28T09:37:44;-1.30;99.90
13035;DHT22;6584;48.022;11.810;2023-02-28T09:40:11;-1.30;99.90
13035;DHT22;6584;48.022;11.810;2023-02-28T09:42:37;-1.50;99.90
13035;DHT22;6584;48.022;11.810;2023-02-28T09:45:16;-1.30;99.90
13035;DHT22;6584;48.022;11.810;2023-02-28T09:47:47;-1.30;99.90
13035;DHT22;6584;48.022;11.810;2023-02-28T09:52:52;-1.30;99.90
13035;DHT22;6584;48.022;11.810;2023-02-28T09:55:28;-1.30;99.90
13035;DHT22;6584;48.022;11.810;2023-02-28T09:57:56;-1.30;99.90
13035;DHT22;6584;48.022;11.810;2023-02-28T10:00:33;-1.40;99.90
13035;DHT22;6584;48.022;11.810;2023-02-28T10:08:30;-1.30;99.90
13035;DHT22;6584;48.022;11.810;2023-02-28T10:11:07;-1.10;99.90
13035;DHT22;6584;48.022;11.810;2023-02-28T10:13:46;-1.00;99.90
13035;DHT22;6584;48.022;11.810;2023-02-28T10:16:32;-1.40;99.90
13035;DHT22;6584;48.022;11.810;2023-02-28T10:21:39;-1.70;99.90
13035;DHT22;6584;48.022;11.810;2023-02-28T10:24:29;-1.60;99.90
13035;DHT22;6584;48.022;11.810;2023-02-28T10:27:13;-1.40;99.90
13035;DHT22;6584;48.022;11.810;2023-02-28T10:29:42;-1.60;99.90
13035;DHT22;6584;48.022;11.810;2023-02-28T10:32:11;-1.50;99.90
13035;DHT22;6584;48.022;11.810;2023-02-28T10:34:38;-1.30;99.90
13035;DHT22;6584;48.022;11.810;2023-02-28T10:37:04;-1.30;99.90
13035;DHT22;6584;48.022;11.810;2023-02-28T10:39:44;-1.10;99.90
13035;DHT22;6584;48.022;11.810;2023-02-28T10:42:26;-1.00;99.90
13035;DHT22;6584;48.022;11.810;2023-02-28T10:45:14;-1.00;99.90
13035;DHT22;6584;48.022;11.810;2023-02-28T11:03:55;-1.00;99.90
13035;DHT22;6584;48.022;11.810;2023-02-28T11:06:34;-1.20;99.90
13035;DHT22;6584;48.022;11.810;2023-02-28T11:09:14;-1.30;99.90
13035;DHT22;6584;48.022;11.810;2023-02-28T11:11:44;-1.20;99.90
13035;DHT22;6584;48.022;11.810;2023-02-28T11:14:24;-1.20;99.90
13035;DHT22;6584;48.022;11.810;2023-02-28T11:16:50;-1.20;99.90
13035;DHT22;6584;48.022;11.810;2023-02-28T11:19:29;-1.10;99.90
13035;DHT22;6584;48.022;11.810;2023-02-28T11:21:59;-0.90;99.90
13035;DHT22;6584;48.022;11.810;2023-02-28T11:24:35;-0.70;99.90
13035;DHT22;6584;48.022;11.810;2023-02-28T11:27:01;-0.40;99.90
13035;DHT22;6584;48.022;11.810;2023-02-28T11:29:29;-0.10;99.90
13035;DHT22;6584;48.022;11.810;2023-02-28T11:34:34;0.00;99.90
13035;DHT22;6584;48.022;11.810;2023-02-28T11:37:01;0.20;99.90
13035;DHT22;6584;48.022;11.810;2023-02-28T11:39:31;0.10;99.90
13035;DHT22;6584;48.022;11.810;2023-02-28T11:42:05;0.20;99.90
13035;DHT22;6584;48.022;11.810;2023-02-28T11:44:42;0.00;99.90
13035;DHT22;6584;48.022;11.810;2023-02-28T11:47:17;-0.20;99.90
13035;DHT22;6584;48.022;11.810;2023-02-28T11:52:51;-0.40;99.90
13035;DHT22;6584;48.022;11.810;2023-02-28T11:55:39;-0.10;99.90
13035;DHT22;6584;48.022;11.810;2023-02-28T12:03:45;-0.20;99.90
13035;DHT22;6584;48.022;11.810;2023-02-28T12:16:59;0.60;99.90
13035;DHT22;6584;48.022;11.810;2023-02-28T12:19:59;0.60;99.90
13035;DHT22;6584;48.022;11.810;2023-02-28T12:22:32;0.50;99.90
13035;DHT22;6584;48.022;11.810;2023-02-28T12:27:38;0.50;99.90
13035;DHT22;6584;48.022;11.810;2023-02-28T12:30:16;0.30;99.90
13035;DHT22;6584;48.022;11.810;2023-02-28T12:32:56;0.30;99.90
13035;DHT22;6584;48.022;11.810;2023-02-28T12:35:33;0.30;99.90
13035;DHT22;6584;48.022;11.810;2023-02-28T12:40:47;0.10;99.90
13035;DHT22;6584;48.022;11.810;2023-02-28T12:43:16;0.50;99.90
13035;DHT22;6584;48.022;11.810;2023-02-28T12:45:50;0.70;99.90
13035;DHT22;6584;48.022;11.810;2023-02-28T12:48:33;0.90;99.90
13035;DHT22;6584;48.022;11.810;2023-02-28T12:51:03;0.90;99.90
13035;DHT22;6584;48.022;11.810;2023-02-28T12:56:18;1.10;99.90
13035;DHT22;6584;48.022;11.810;2023-02-28T12:59:10;0.90;99.90
13035;DHT22;6584;48.022;11.810;2023-02-28T13:10:00;1.20;99.90
13035;DHT22;6584;48.022;11.810;2023-02-28T13:12:27;0.80;99.90
13035;DHT22;6584;48.022;11.810;2023-02-28T13:15:16;0.80;99.90
13035;DHT22;6584;48.022;11.810;2023-02-28T13:17:48;1.10;99.90
13035;DHT22;6584;48.022;11.810;2023-02-28T13:20:20;0.90;99.90
13035;DHT22;6584;48.022;11.810;2023-02-28T13:22:51;0.60;99.90
13035;DHT22;6584;48.022;11.810;2023-02-28T13:27:58;0.60;99.90
13035;DHT22;6584;48.022;11.810;2023-02-28T13:36:07;0.80;99.90
13035;DHT22;6584;48.022;11.810;2023-02-28T13:49:27;1.00;99.90
13035;DHT22;6584;48.022;11.810;2023-02-28T13:52:18;0.80;99.90
13035;DHT22;6584;48.022;11.810;2023-02-28T13:57:57;0.90;99.90
13035;DHT22;6584;48.022;11.810;2023-02-28T14:06:18;0.70;99.90
13035;DHT22;6584;48.022;11.810;2023-02-28T14:08:54;0.70;99.90
13035;DHT22;6584;48.022;11.810;2023-02-28T14:11:30;0.80;99.90
13035;DHT22;6584;48.022;11.810;2023-02-28T14:13:56;1.10;99.90
13035;DHT22;6584;48.022;11.810;2023-02-28T14:16:39;1.30;99.90
13035;DHT22;6584;48.022;11.810;2023-02-28T14:19:21;1.50;99.90
13035;DHT22;6584;48.022;11.810;2023-02-28T14:22:12;1.40;99.90
13035;DHT22;6584;48.022;11.810;2023-02-28T14:24:51;1.20;99.90
13035;DHT22;6584;48.022;11.810;2023-02-28T14:30:25;1.00;99.90
13035;DHT22;6584;48.022;11.810;2023-02-28T14:38:38;1.20;99.90
13035;DHT22;6584;48.022;11.810;2023-02-28T14:41:14;1.10;99.90
13035;DHT22;6584;48.022;11.810;2023-02-28T14:43:49;1.20;99.90
13035;DHT22;6584;48.022;11.810;2023-02-28T14:46:17;1.20;99.90
13035;DHT22;6584;48.022;11.810;2023-02-28T14:48:48;1.20;99.90
13035;DHT22;6584;48.022;11.810;2023-02-28T14:51:19;1.30;99.90
13035;DHT22;6584;48.022;11.810;2023-02-28T14:53:52;1.50;99.90
13035;DHT22;6584;48.022;11.810;2023-02-28T14:56:24;1.50;99.90
13035;DHT22;6584;48.022;11.810;2023-02-28T14:58:55;1.40;99.90
13035;DHT22;6584;48.022;11.810;2023-02-28T15:01:22;1.50;99.90
13035;DHT22;6584;48.022;11.810;2023-02-28T15:03:57;1.60;99.90
13035;DHT22;6584;48.022;11.810;2023-02-28T15:06:23;1.60;99.90
13035;DHT22;6584;48.022;11.810;2023-02-28T15:09:14;1.50;99.90
13035;DHT22;6584;48.022;11.810;2023-02-28T15:11:40;1.50;99.90
13035;DHT22;6584;48.022;11.810;2023-02-28T15:14:06;1.40;99.90
13035;DHT22;6584;48.022;11.810;2023-02-28T15:16:35;1.50;99.90
13035;DHT22;6584;48.022;11.810;2023-02-28T15:19:05;1.50;99.90
13035;DHT22;6584;48.022;11.810;2023-02-28T15:21:35;1.40;99.90
13035;DHT22;6584;48.022;11.810;2023-02-28T15:24:05;1.30;99.90
13035;DHT22;6584;48.022;11.810;2023-02-28T15:26:36;1.30;99.90
13035;DHT22;6584;48.022;11.810;2023-02-28T15:29:19;1.40;99.90
13035;DHT22;6584;48.022;11.810;2023-02-28T15:32:20;1.40;99.90
13035;DHT22;6584;48.022;11.810;2023-02-28T15:34:40;1.50;99.90
13035;DHT22;6584;48.022;11.810;2023-02-28T15:40:16;1.60;99.90
13035;DHT22;6584;48.022;11.810;2023-02-28T15:42:42;1.60;99.90
13035;DHT22;6584;48.022;11.810;2023-02-28T15:45:48;1.60;99.90
13035;DHT22;6584;48.022;11.810;2023-02-28T15:48:23;1.50;99.90
13035;DHT22;6584;48.022;11.810;2023-02-28T15:50:55;1.50;99.90
13035;DHT22;6584;48.022;11.810;2023-02-28T15:53:25;1.40;99.90
13035;DHT22;6584;48.022;11.810;2023-02-28T15:55:57;1.40;99.90
13035;DHT22;6584;48.022;11.810;2023-02-28T15:58:24;1.40;99.90
13035;DHT22;6584;48.022;11.810;2023-02-28T16:01:18;1.40;99.90
13035;DHT22;6584;48.022;11.810;2023-02-28T16:03:47;1.40;99.90
13035;DHT22;6584;48.022;11.810;2023-02-28T16:08:48;1.20;99.90
13035;DHT22;6584;48.022;11.810;2023-02-28T16:11:16;1.10;99.90
13035;DHT22;6584;48.022;11.810;2023-02-28T16:13:42;1.10;99.90
13035;DHT22;6584;48.022;11.810;2023-02-28T16:16:08;1.10;99.90
13035;DHT22;6584;48.022;11.810;2023-02-28T16:18:33;1.10;99.90
13035;DHT22;6584;48.022;11.810;2023-02-28T16:20:59;1.10;99.90
13035;DHT22;6584;48.022;11.810;2023-02-28T16:23:25;1.10;99.90
13035;DHT22;6584;48.022;11.810;2023-02-28T16:25:50;1.10;99.90
13035;DHT22;6584;48.022;11.810;2023-02-28T16:28:22;1.10;99.90
13035;DHT22;6584;48.022;11.810;2023-02-28T16:30:51;1.00;99.90
13035;DHT22;6584;48.022;11.810;2023-02-28T16:33:17;0.90;99.90
13035;DHT22;6584;48.022;11.810;2023-02-28T16:35:42;0.90;99.90
13035;DHT22;6584;48.022;11.810;2023-02-28T16:38:08;0.70;99.90
13035;DHT22;6584;48.022;11.810;2023-02-28T16:40:35;0.70;99.90
13035;DHT22;6584;48.022;11.810;2023-02-28T16:43:05;0.70;99.90
13035;DHT22;6584;48.022;11.810;2023-02-28T16:45:32;0.70;99.90
13035;DHT22;6584;48.022;11.810;2023-02-28T16:47:58;0.70;99.90
13035;DHT22;6584;48.022;11.810;2023-02-28T16:50:29;0.70;99.90
13035;DHT22;6584;48.022;11.810;2023-02-28T16:52:55;0.60;99.90
13035;DHT22;6584;48.022;11.810;2023-02-28T16:55:22;0.60;99.90
13035;DHT22;6584;48.022;11.810;2023-02-28T16:57:52;0.50;99.90
13035;DHT22;6584;48.022;11.810;2023-02-28T17:00:19;0.50;99.90
13035;DHT22;6584;48.022;11.810;2023-02-28T17:02:44;0.50;99.90
13035;DHT22;6584;48.022;11.810;2023-02-28T17:05:13;0.40;99.90
13035;DHT22;6584;48.022;11.810;2023-02-28T17:07:41;0.40;99.90
13035;DHT22;6584;48.022;11.810;2023-02-28T17:10:26;0.40;99.90
13035;DHT22;6584;48.022;11.810;2023-02-28T17:12:52;0.40;99.90
13035;DHT22;6584;48.022;11.810;2023-02-28T17:15:18;0.30;99.90
13035;DHT22;6584;48.022;11.810;2023-02-28T17:17:45;0.30;99.90
13035;DHT22;6584;48.022;11.810;2023-02-28T17:22:41;0.30;99.90
13035;DHT22;6584;48.022;11.810;2023-02-28T17:25:08;0.30;99.90
13035;DHT22;6584;48.022;11.810;2023-02-28T17:27:34;0.20;99.90
13035;DHT22;6584;48.022;11.810;2023-02-28T17:30:00;0.20;99.90
13035;DHT22;6584;48.022;11.810;2023-02-28T17:32:26;0.20;99.90
13035;DHT22;6584;48.022;11.810;2023-02-28T17:34:53;0.30;99.90
13035;DHT22;6584;48.022;11.810;2023-02-28T17:37:18;0.20;99.90
13035;DHT22;6584;48.022;11.810;2023-02-28T17:39:44;0.20;99.90
13035;DHT22;6584;48.022;11.810;2023-02-28T17:42:09;0.20;99.90
13035;DHT22;6584;48.022;11.810;2023-02-28T17:44:35;0.30;99.90
13035;DHT22;6584;48.022;11.810;2023-02-28T17:47:02;0.30;99.90
13035;DHT22;6584;48.022;11.810;2023-02-28T17:49:28;0.30;99.90
13035;DHT22;6584;48.022;11.810;2023-02-28T17:51:54;0.30;99.90
13035;DHT22;6584;48.022;11.810;2023-02-28T17:54:19;0.30;99.90
13035;DHT22;6584;48.022;11.810;2023-02-28T17:56:45;0.30;99.90
13035;DHT22;6584;48.022;11.810;2023-02-28T17:59:12;0.30;99.90
13035;DHT22;6584;48.022;11.810;2023-02-28T18:01:38;0.30;99.90
13035;DHT22;6584;48.022;11.810;2023-02-28T18:04:03;0.30;99.90
13035;DHT22;6584;48.022;11.810;2023-02-28T18:06:37;0.40;99.90
13035;DHT22;6584;48.022;11.810;2023-02-28T18:09:16;0.40;99.90